X  Close Metar Aviation Weather Data     YMML Melbourne International Airport
Temperature
12°C Temperature
9°C Dewpoint
82% Humidity



Wind
3 M/S
6 MPH
10 KM/H
5 KTS



230°
SW
Current Conditions

Partly Cloudy Partly Cloudy
Pressure 1011.92 (hPa) - 29.88 (inHg)
Visibility 6.2 (mile) - 10 (km)
Airport
Airport-code YMML

Location: Melbourne International Airport
Distance: 18 (km)

Metar:
YMML 262230Z 23005KT 9999 FEW007 BKN025 12/09 Q1012

Time: 27-09-2022 08:30 AEST